Time;durP1;ratioP1;P1;durP2;ratioP2;P2;SDS_P1;SDS_P2;PMS_P1;PMS_P2;Temp;Humidity;BMP_temperature;BMP_pressure;BME280_temperature;BME280_humidity;BME280_pressure;Samples;Min_cycle;Max_cycle;Signal;HPM_P1;HPM_P2
2021/12/30 00:02:26;;;;;;;26.98;14.90;;;8.50;99.90;;;;;;4972081;28;20473;-68
2021/12/30 00:04:52;;;;;;;26.27;14.15;;;8.40;99.90;;;;;;4953854;28;20038;-68
2021/12/30 00:07:17;;;;;;;28.08;14.73;;;8.50;99.90;;;;;;4967623;28;20023;-68
2021/12/30 00:09:43;;;;;;;25.02;14.20;;;8.50;99.90;;;;;;4970036;28;20110;-68
2021/12/30 00:12:09;;;;;;;25.58;12.93;;;8.50;99.90;;;;;;4964483;28;20043;-67
2021/12/30 00:14:34;;;;;;;26.58;13.77;;;8.50;99.90;;;;;;4969523;28;20026;-68
2021/12/30 00:17:00;;;;;;;23.90;13.80;;;8.50;99.90;;;;;;4972675;28;20022;-68
2021/12/30 00:19:25;;;;;;;22.27;12.95;;;8.50;99.90;;;;;;4971482;28;20031;-68
2021/12/30 00:21:51;;;;;;;23.90;12.88;;;8.50;99.90;;;;;;4986559;28;20031;-68
2021/12/30 00:24:16;;;;;;;24.58;12.27;;;8.50;99.90;;;;;;4969021;28;20036;-68
2021/12/30 00:26:42;;;;;;;25.58;12.45;;;8.50;99.90;;;;;;4972917;28;20506;-68
2021/12/30 00:29:08;;;;;;;25.35;13.45;;;8.40;99.90;;;;;;4971862;28;20031;-68
2021/12/30 00:31:34;;;;;;;27.83;13.50;;;8.50;99.90;;;;;;4972521;28;20438;-68
2021/12/30 00:33:59;;;;;;;22.02;12.00;;;8.50;99.90;;;;;;4970172;28;20053;-68
2021/12/30 00:36:25;;;;;;;22.52;12.30;;;8.50;99.90;;;;;;4971672;28;20626;-68
2021/12/30 00:38:50;;;;;;;21.83;11.57;;;8.50;99.90;;;;;;4968729;28;20394;-68
2021/12/30 00:41:18;;;;;;;25.48;13.68;;;8.50;99.90;;;;;;4986531;28;20027;-68
2021/12/30 00:43:44;;;;;;;24.60;13.73;;;8.50;99.90;;;;;;4961246;28;20554;-68
2021/12/30 00:46:09;;;;;;;22.27;12.45;;;8.40;99.90;;;;;;4957749;28;20114;-69
2021/12/30 00:48:35;;;;;;;21.73;12.27;;;8.50;99.90;;;;;;4971682;28;20038;-69
2021/12/30 00:51:01;;;;;;;19.92;11.95;;;8.50;99.90;;;;;;4960687;28;20114;-68
2021/12/30 00:53:27;;;;;;;22.17;12.15;;;8.50;99.90;;;;;;4971681;28;20121;-69
2021/12/30 00:55:52;;;;;;;20.73;11.80;;;8.50;99.90;;;;;;4959602;28;20032;-68
2021/12/30 00:58:18;;;;;;;21.45;12.60;;;8.50;99.90;;;;;;4963113;28;20031;-68
2021/12/30 01:00:46;;;;;;;21.40;12.65;;;8.50;99.90;;;;;;4963799;28;20050;-68
2021/12/30 01:03:13;;;;;;;21.67;13.02;;;8.50;99.90;;;;;;4971353;28;20466;-68
2021/12/30 01:05:39;;;;;;;21.98;12.95;;;8.60;99.90;;;;;;4972259;28;20107;-69
2021/12/30 01:08:06;;;;;;;21.30;12.20;;;8.50;99.90;;;;;;4968747;28;20181;-69
2021/12/30 01:10:32;;;;;;;20.77;11.95;;;8.50;99.90;;;;;;4971815;28;20037;-68
2021/12/30 01:13:04;;;;;;;23.25;12.55;;;8.50;99.90;;;;;;4971076;28;20047;-68
2021/12/30 01:15:35;;;;;;;23.92;13.13;;;8.60;99.90;;;;;;4972565;28;20027;-68
2021/12/30 01:18:25;;;;;;;20.77;13.05;;;8.50;99.90;;;;;;4970347;28;20137;-68
2021/12/30 01:20:48;;;;;;;20.25;12.25;;;8.60;99.90;;;;;;4971658;28;20019;-68
2021/12/30 01:23:14;;;;;;;22.42;13.25;;;8.60;99.90;;;;;;4971200;28;20038;-69
2021/12/30 01:25:39;;;;;;;19.83;11.88;;;8.60;99.90;;;;;;4972045;28;20023;-68
2021/12/30 01:28:05;;;;;;;23.98;13.10;;;8.60;99.90;;;;;;4965784;28;20033;-68
2021/12/30 01:30:30;;;;;;;19.52;11.70;;;8.60;99.90;;;;;;4953001;29;20015;-68
2021/12/30 01:32:56;;;;;;;19.15;11.40;;;8.60;99.90;;;;;;4960076;28;20039;-68
2021/12/30 01:35:25;;;;;;;18.08;11.73;;;8.60;99.90;;;;;;4956584;28;20082;-68
2021/12/30 01:37:51;;;;;;;22.58;13.10;;;8.70;99.90;;;;;;4972261;28;20053;-68
2021/12/30 01:40:17;;;;;;;20.60;12.43;;;8.70;99.90;;;;;;4974971;28;20486;-68
2021/12/30 01:42:43;;;;;;;18.48;11.57;;;8.70;99.90;;;;;;4973188;28;20106;-68
2021/12/30 01:45:10;;;;;;;18.95;11.07;;;8.70;99.90;;;;;;4975523;28;20461;-68
2021/12/30 01:47:41;;;;;;;18.83;11.77;;;8.70;99.90;;;;;;4974184;28;20067;-68
2021/12/30 01:50:07;;;;;;;17.65;11.40;;;8.70;99.90;;;;;;4975654;28;20039;-68
2021/12/30 01:52:33;;;;;;;19.80;11.55;;;8.70;99.90;;;;;;4970586;28;20042;-68
2021/12/30 01:54:58;;;;;;;20.60;11.73;;;8.70;99.90;;;;;;4975362;28;20394;-68
2021/12/30 01:57:24;;;;;;;19.30;11.93;;;8.70;99.90;;;;;;4974114;28;20075;-68
2021/12/30 01:59:50;;;;;;;18.13;10.88;;;8.70;99.90;;;;;;4975067;28;20549;-67
2021/12/30 02:02:15;;;;;;;18.67;11.73;;;8.70;99.90;;;;;;4974472;28;20278;-68
2021/12/30 02:04:41;;;;;;;17.33;10.75;;;8.70;99.90;;;;;;4956467;28;20440;-68
2021/12/30 02:07:08;;;;;;;16.67;11.18;;;8.70;99.90;;;;;;4955535;29;20425;-68
2021/12/30 02:09:34;;;;;;;17.42;10.95;;;8.60;99.90;;;;;;4973229;28;20034;-68
2021/12/30 02:12:00;;;;;;;18.40;11.15;;;8.70;99.90;;;;;;4974072;28;20057;-68
2021/12/30 02:14:26;;;;;;;18.73;11.75;;;8.70;99.90;;;;;;4973477;28;20031;-69
2021/12/30 02:16:52;;;;;;;19.38;11.82;;;8.60;99.90;;;;;;4974378;28;20173;-68
2021/12/30 02:19:18;;;;;;;19.70;11.63;;;8.70;99.90;;;;;;4974088;28;20421;-69
2021/12/30 02:21:44;;;;;;;19.20;11.50;;;8.70;99.90;;;;;;4974632;28;20098;-69
2021/12/30 02:24:09;;;;;;;17.73;10.63;;;8.60;99.90;;;;;;4973707;28;20106;-69
2021/12/30 02:26:35;;;;;;;18.30;11.95;;;8.70;99.90;;;;;;4974493;28;20018;-69
2021/12/30 02:29:00;;;;;;;17.83;11.07;;;8.70;99.90;;;;;;4969362;28;20045;-68
2021/12/30 02:31:28;;;;;;;16.98;10.43;;;8.70;99.90;;;;;;4974182;28;20039;-69
2021/12/30 02:33:56;;;;;;;17.90;11.00;;;8.70;99.90;;;;;;4970967;28;20026;-69
2021/12/30 02:36:27;;;;;;;19.17;11.30;;;8.70;99.90;;;;;;4974541;28;20027;-69
2021/12/30 02:38:53;;;;;;;20.00;11.90;;;8.70;99.90;;;;;;4970804;28;20026;-69
2021/12/30 02:41:19;;;;;;;17.58;10.82;;;8.70;99.90;;;;;;4957678;28;20526;-69
2021/12/30 02:43:47;;;;;;;20.13;11.80;;;8.70;99.90;;;;;;4981959;28;20037;-69
2021/12/30 02:46:14;;;;;;;21.63;11.88;;;8.70;99.90;;;;;;4973596;28;20093;-69
2021/12/30 02:48:41;;;;;;;17.27;11.10;;;8.80;99.90;;;;;;4968667;28;20114;-69
2021/12/30 02:51:09;;;;;;;15.80;10.48;;;8.80;99.90;;;;;;4969193;28;20038;-69
2021/12/30 02:53:35;;;;;;;17.30;9.90;;;8.80;99.90;;;;;;4971207;28;20074;-68
2021/12/30 02:56:02;;;;;;;16.25;10.27;;;8.90;99.90;;;;;;4973938;28;20027;-68
2021/12/30 02:58:28;;;;;;;15.98;10.43;;;8.90;99.90;;;;;;4952490;28;20059;-69
2021/12/30 03:01:05;;;;;;;19.00;11.55;;;8.90;99.90;;;;;;4954543;28;20048;-69
2021/12/30 03:03:30;;;;;;;17.48;10.50;;;9.00;99.90;;;;;;4970678;28;20038;-69
2021/12/30 03:05:58;;;;;;;16.48;10.23;;;9.00;99.90;;;;;;4973694;28;20049;-69
2021/12/30 03:08:24;;;;;;;19.17;11.30;;;9.00;99.90;;;;;;4972971;28;20037;-69
2021/12/30 03:10:50;;;;;;;18.38;10.10;;;9.00;99.90;;;;;;4973153;28;20022;-69
2021/12/30 03:13:18;;;;;;;15.80;10.35;;;9.00;99.90;;;;;;4973191;28;20062;-69
2021/12/30 03:15:46;;;;;;;17.75;11.05;;;9.00;99.90;;;;;;4972633;28;20105;-69
2021/12/30 03:18:11;;;;;;;17.33;10.07;;;9.10;99.90;;;;;;4972909;28;20049;-69
2021/12/30 03:20:37;;;;;;;16.60;10.75;;;9.10;99.90;;;;;;4973565;28;20023;-69
2021/12/30 03:23:04;;;;;;;16.50;9.90;;;9.10;99.90;;;;;;4972429;28;20478;-69
2021/12/30 03:25:30;;;;;;;17.33;10.35;;;9.10;99.90;;;;;;4973063;28;20030;-69
2021/12/30 03:27:56;;;;;;;16.35;10.30;;;9.20;99.90;;;;;;4974328;28;20054;-69
2021/12/30 03:30:22;;;;;;;16.77;10.40;;;9.20;99.90;;;;;;4972866;28;20077;-68
2021/12/30 03:32:48;;;;;;;15.20;10.30;;;9.20;99.90;;;;;;4971782;28;20034;-69
2021/12/30 03:35:14;;;;;;;16.80;9.98;;;9.20;99.90;;;;;;4973364;28;20027;-68
2021/12/30 03:37:41;;;;;;;17.13;10.73;;;9.20;99.90;;;;;;4972092;28;20494;-69
2021/12/30 03:40:11;;;;;;;14.80;8.98;;;9.20;99.90;;;;;;4973155;28;20121;-69
2021/12/30 03:42:37;;;;;;;14.50;9.30;;;9.30;99.90;;;;;;4972406;28;20046;-69
2021/12/30 03:45:07;;;;;;;14.60;9.70;;;9.30;99.90;;;;;;4973390;28;20034;-69
2021/12/30 03:47:37;;;;;;;15.68;10.07;;;9.30;99.90;;;;;;4973162;28;20042;-69
2021/12/30 03:50:08;;;;;;;15.23;9.15;;;9.30;99.90;;;;;;4973339;28;20031;-68
2021/12/30 03:52:33;;;;;;;15.05;9.32;;;9.30;99.90;;;;;;4971669;28;20049;-68
2021/12/30 03:54:59;;;;;;;14.07;8.90;;;9.40;99.90;;;;;;4973414;28;20382;-68
2021/12/30 03:57:25;;;;;;;17.00;9.90;;;9.40;99.90;;;;;;4971199;28;20031;-68
2021/12/30 03:59:51;;;;;;;15.82;9.80;;;9.40;99.90;;;;;;4973411;28;20023;-67
2021/12/30 04:02:16;;;;;;;13.65;8.80;;;9.40;99.90;;;;;;4972077;28;20074;-69
2021/12/30 04:04:42;;;;;;;13.07;8.80;;;9.40;99.90;;;;;;4972449;28;20030;-68
2021/12/30 04:07:08;;;;;;;12.55;8.70;;;9.40;99.90;;;;;;4971693;28;20081;-69
2021/12/30 04:09:34;;;;;;;12.77;9.00;;;9.40;99.90;;;;;;4972850;28;20030;-68
2021/12/30 04:11:59;;;;;;;14.50;9.63;;;9.40;99.90;;;;;;4971768;28;20074;-68
2021/12/30 04:14:26;;;;;;;14.32;8.98;;;9.50;99.90;;;;;;4971325;28;20023;-68
2021/12/30 04:16:54;;;;;;;12.00;7.97;;;9.50;99.90;;;;;;4969836;28;20904;-69
2021/12/30 04:19:20;;;;;;;14.15;8.63;;;9.50;99.90;;;;;;4953545;29;20106;-68
2021/12/30 04:21:46;;;;;;;13.52;8.57;;;9.50;99.90;;;;;;4961222;28;20226;-68
2021/12/30 04:24:11;;;;;;;13.98;8.23;;;9.60;99.90;;;;;;4953876;28;20034;-69
2021/12/30 04:26:37;;;;;;;17.70;10.13;;;9.60;99.90;;;;;;4961794;28;20023;-68
2021/12/30 04:29:04;;;;;;;16.27;8.80;;;9.60;99.90;;;;;;4972347;28;20412;-68
2021/12/30 04:31:30;;;;;;;18.40;9.10;;;9.60;99.90;;;;;;4971414;28;20042;-69
2021/12/30 04:33:56;;;;;;;16.52;9.23;;;9.60;99.90;;;;;;4968154;28;20030;-68
2021/12/30 04:36:22;;;;;;;19.17;9.02;;;9.60;99.90;;;;;;4971961;28;20042;-69
2021/12/30 04:38:48;;;;;;;19.55;9.82;;;9.70;99.90;;;;;;4971524;28;20018;-68
2021/12/30 04:41:13;;;;;;;19.15;9.57;;;9.70;99.90;;;;;;4972911;28;20027;-68
2021/12/30 04:43:39;;;;;;;18.10;8.98;;;9.70;99.90;;;;;;4971672;28;20033;-69
2021/12/30 04:46:05;;;;;;;17.63;10.05;;;9.70;99.90;;;;;;4972491;28;20062;-69
2021/12/30 04:48:30;;;;;;;20.63;12.00;;;9.70;99.90;;;;;;4971409;28;20300;-69
2021/12/30 04:50:56;;;;;;;19.27;10.43;;;9.80;99.90;;;;;;4971258;28;20510;-69
2021/12/30 04:53:21;;;;;;;22.35;11.00;;;9.80;99.90;;;;;;4957286;28;20511;-69
2021/12/30 04:55:48;;;;;;;23.95;12.75;;;9.80;99.90;;;;;;4968356;28;20023;-69
2021/12/30 04:58:14;;;;;;;23.52;11.27;;;9.80;99.90;;;;;;4971666;28;20035;-69
2021/12/30 05:00:40;;;;;;;23.85;12.32;;;9.90;99.90;;;;;;4971270;28;20055;-69
2021/12/30 05:03:10;;;;;;;23.95;11.13;;;9.90;99.90;;;;;;4971658;28;20084;-69
2021/12/30 05:05:43;;;;;;;27.52;12.18;;;9.90;99.90;;;;;;4972070;28;20043;-69
2021/12/30 05:08:09;;;;;;;25.08;11.32;;;9.90;99.90;;;;;;4972016;28;20610;-69
2021/12/30 05:10:36;;;;;;;24.23;12.32;;;10.00;99.90;;;;;;4976060;28;20427;-69
2021/12/30 05:13:02;;;;;;;29.13;13.88;;;10.00;99.90;;;;;;4973755;28;20089;-69
2021/12/30 05:15:28;;;;;;;26.25;12.30;;;10.00;99.90;;;;;;4975677;28;20120;-69
2021/12/30 05:17:54;;;;;;;28.08;12.30;;;10.00;99.90;;;;;;4974078;28;20023;-69
2021/12/30 05:20:20;;;;;;;24.52;13.52;;;10.10;99.90;;;;;;4975771;28;20050;-69
2021/12/30 05:22:46;;;;;;;25.35;12.02;;;10.10;99.90;;;;;;4975100;28;20046;-68
2021/12/30 05:25:13;;;;;;;30.25;13.18;;;10.10;99.90;;;;;;4974458;28;20042;-69
2021/12/30 05:27:39;;;;;;;24.10;13.02;;;10.10;99.90;;;;;;4974667;28;20114;-68
2021/12/30 05:30:06;;;;;;;26.35;12.57;;;10.20;99.90;;;;;;4975391;28;20110;-69
2021/12/30 05:32:31;;;;;;;25.73;12.95;;;10.20;99.90;;;;;;4973927;28;20038;-69
2021/12/30 05:34:57;;;;;;;32.00;14.15;;;10.20;99.90;;;;;;4969504;28;20081;-69
2021/12/30 05:37:23;;;;;;;23.00;12.68;;;10.30;99.90;;;;;;4974278;28;20074;-69
2021/12/30 05:39:48;;;;;;;27.92;13.38;;;10.30;99.90;;;;;;4975316;28;20062;-69
2021/12/30 05:42:14;;;;;;;28.65;12.65;;;10.30;99.90;;;;;;4974471;28;20166;-69
2021/12/30 05:44:40;;;;;;;27.63;14.15;;;10.30;99.90;;;;;;4974902;28;20470;-69
2021/12/30 05:47:06;;;;;;;27.42;13.60;;;10.30;99.90;;;;;;4968858;28;20513;-69
2021/12/30 05:49:32;;;;;;;23.33;12.93;;;10.40;99.90;;;;;;4955968;29;20035;-68
2021/12/30 05:51:57;;;;;;;26.08;13.80;;;10.40;99.90;;;;;;4959351;28;20307;-69
2021/12/30 05:54:23;;;;;;;30.58;14.20;;;10.50;99.90;;;;;;4966314;28;20508;-68
2021/12/30 05:56:48;;;;;;;25.33;13.35;;;10.50;99.90;;;;;;4958391;28;20045;-69
2021/12/30 05:59:14;;;;;;;27.15;13.48;;;10.50;99.90;;;;;;4974411;28;20027;-69
2021/12/30 06:01:39;;;;;;;29.10;13.90;;;10.50;99.90;;;;;;4973218;28;20383;-68
2021/12/30 06:04:05;;;;;;;29.73;13.63;;;10.50;99.90;;;;;;4955739;29;20030;-69
2021/12/30 06:06:30;;;;;;;33.33;14.07;;;10.60;99.90;;;;;;4955688;28;20170;-69
2021/12/30 06:08:56;;;;;;;30.00;13.68;;;10.60;99.90;;;;;;4956157;28;20186;-69
2021/12/30 06:11:21;;;;;;;25.92;12.55;;;10.60;99.90;;;;;;4955424;29;20039;-68
2021/12/30 06:13:47;;;;;;;25.45;13.80;;;10.60;99.90;;;;;;4973831;28;20038;-69
2021/12/30 06:16:12;;;;;;;30.13;14.95;;;10.70;99.90;;;;;;4974682;28;20031;-69
2021/12/30 06:18:38;;;;;;;23.40;13.05;;;10.70;99.90;;;;;;4973963;28;20109;-69
2021/12/30 06:21:03;;;;;;;30.35;13.30;;;10.70;99.90;;;;;;4974022;28;20033;-68
2021/12/30 06:23:29;;;;;;;29.50;14.50;;;10.60;99.90;;;;;;4973509;28;20062;-68
2021/12/30 06:25:54;;;;;;;30.42;13.45;;;10.70;99.90;;;;;;4955344;29;20487;-68
2021/12/30 06:28:20;;;;;;;26.90;13.40;;;10.70;99.90;;;;;;4970233;28;20070;-69
2021/12/30 06:30:45;;;;;;;28.48;12.45;;;10.70;99.90;;;;;;4974598;28;20062;-69
2021/12/30 06:33:11;;;;;;;24.70;12.85;;;10.70;99.90;;;;;;4973544;28;20513;-69
2021/12/30 06:35:36;;;;;;;26.73;13.13;;;10.80;99.90;;;;;;4973375;28;20038;-68
2021/12/30 06:38:03;;;;;;;28.05;11.52;;;10.70;99.90;;;;;;4967521;28;20027;-69
2021/12/30 06:40:29;;;;;;;24.90;12.45;;;10.80;99.90;;;;;;4971147;28;20097;-69
2021/12/30 06:42:54;;;;;;;20.95;12.02;;;10.80;99.90;;;;;;4973284;28;20023;-68
2021/12/30 06:45:20;;;;;;;30.05;11.80;;;10.80;99.90;;;;;;4974458;28;20118;-68
2021/12/30 06:47:46;;;;;;;27.05;13.30;;;10.80;99.90;;;;;;4973481;28;20085;-68
2021/12/30 06:50:14;;;;;;;25.20;12.52;;;10.70;99.90;;;;;;4973279;28;20039;-69
2021/12/30 06:52:40;;;;;;;22.60;11.93;;;10.70;99.90;;;;;;4973388;28;20085;-68
2021/12/30 06:55:08;;;;;;;21.13;13.20;;;10.70;99.90;;;;;;4974199;28;20027;-69
2021/12/30 06:57:34;;;;;;;27.20;12.48;;;10.70;99.90;;;;;;4964707;28;20499;-68
2021/12/30 06:59:59;;;;;;;26.92;12.45;;;10.70;99.90;;;;;;4954271;28;20027;-68
2021/12/30 07:02:25;;;;;;;25.88;12.15;;;10.60;99.90;;;;;;4971460;28;20608;-69
2021/12/30 07:04:50;;;;;;;26.17;12.10;;;10.70;99.90;;;;;;4972630;28;20019;-69
2021/12/30 07:07:16;;;;;;;23.95;11.65;;;10.60;99.90;;;;;;4972324;28;20550;-69
2021/12/30 07:09:41;;;;;;;36.78;13.10;;;10.60;99.90;;;;;;4971244;28;20030;-69
2021/12/30 07:12:07;;;;;;;23.58;12.70;;;10.60;99.90;;;;;;4969797;28;20039;-69
2021/12/30 07:14:33;;;;;;;24.02;10.55;;;10.60;99.90;;;;;;4970392;28;20037;-69
2021/12/30 07:16:58;;;;;;;26.02;11.45;;;10.60;99.90;;;;;;4960932;28;20042;-69
2021/12/30 07:19:24;;;;;;;23.77;12.00;;;10.60;99.90;;;;;;4973828;28;20085;-69
2021/12/30 07:21:52;;;;;;;29.30;11.27;;;10.60;99.90;;;;;;4969546;28;20395;-69
2021/12/30 07:24:20;;;;;;;18.38;11.38;;;10.50;99.90;;;;;;4969400;28;20035;-68
2021/12/30 07:26:46;;;;;;;25.35;11.18;;;10.60;99.90;;;;;;4956590;28;20452;-69
2021/12/30 07:29:12;;;;;;;24.00;11.15;;;10.50;99.90;;;;;;4973429;28;20066;-68
2021/12/30 07:31:37;;;;;;;24.67;11.05;;;10.50;99.90;;;;;;4972217;28;20030;-68
2021/12/30 07:34:03;;;;;;;23.42;10.88;;;10.50;99.90;;;;;;4973218;28;20497;-69
2021/12/30 07:36:28;;;;;;;27.08;12.48;;;10.50;99.90;;;;;;4970465;28;20051;-68
2021/12/30 07:38:54;;;;;;;25.65;11.13;;;10.50;99.90;;;;;;4972906;28;20039;-68
2021/12/30 07:41:19;;;;;;;21.65;10.55;;;10.50;99.90;;;;;;4966386;28;20383;-67
2021/12/30 07:43:45;;;;;;;24.15;11.85;;;10.50;99.90;;;;;;4971591;28;20490;-68
2021/12/30 07:46:11;;;;;;;22.55;11.13;;;10.60;99.90;;;;;;4973100;28;20034;-61
2021/12/30 07:48:37;;;;;;;22.73;11.27;;;10.60;99.90;;;;;;4956745;28;20026;-62
2021/12/30 07:51:03;;;;;;;24.20;10.60;;;10.60;99.90;;;;;;4956518;28;20030;-63
2021/12/30 07:53:29;;;;;;;22.13;10.80;;;10.70;99.90;;;;;;4958271;28;20034;-63
2021/12/30 07:55:54;;;;;;;24.65;10.50;;;10.70;99.90;;;;;;4956704;28;20031;-63
2021/12/30 07:58:20;;;;;;;23.40;10.68;;;10.70;99.90;;;;;;4957633;28;20502;-64
2021/12/30 08:00:45;;;;;;;19.98;10.40;;;10.70;99.90;;;;;;4955743;28;20097;-63
2021/12/30 08:03:11;;;;;;;25.67;11.32;;;10.70;99.90;;;;;;4957043;28;20061;-63
2021/12/30 08:05:36;;;;;;;29.30;11.30;;;10.80;99.90;;;;;;4956597;28;20077;-63
2021/12/30 08:08:03;;;;;;;24.52;11.70;;;10.80;99.90;;;;;;4958375;28;20089;-63
2021/12/30 08:10:30;;;;;;;24.30;10.85;;;10.80;99.90;;;;;;4957417;28;20034;-63
2021/12/30 08:12:56;;;;;;;26.23;11.20;;;10.80;99.90;;;;;;4955794;28;20042;-63
2021/12/30 08:15:22;;;;;;;23.73;10.52;;;10.70;99.90;;;;;;4955970;28;20379;-63
2021/12/30 08:17:49;;;;;;;20.42;9.98;;;10.80;99.90;;;;;;4956542;28;20031;-63
2021/12/30 08:20:16;;;;;;;29.05;11.57;;;10.80;99.90;;;;;;4955915;28;20018;-62
2021/12/30 08:22:42;;;;;;;21.73;10.75;;;10.80;99.90;;;;;;4956819;28;20035;-63
2021/12/30 08:25:10;;;;;;;24.55;10.43;;;10.80;99.90;;;;;;4956646;28;20033;-63
2021/12/30 08:27:35;;;;;;;24.95;10.50;;;10.90;99.90;;;;;;4961794;28;20393;-63
2021/12/30 08:30:02;;;;;;;20.65;10.30;;;10.80;99.90;;;;;;4972210;28;20031;-65
2021/12/30 08:32:27;;;;;;;22.95;10.90;;;10.90;99.90;;;;;;4971257;28;20058;-63
2021/12/30 08:34:53;;;;;;;24.77;11.23;;;10.90;99.90;;;;;;4971405;28;20027;-64
2021/12/30 08:37:18;;;;;;;25.52;11.27;;;10.90;99.90;;;;;;4965322;28;20093;-64
2021/12/30 08:39:45;;;;;;;24.75;11.50;;;10.90;99.90;;;;;;4956342;28;20054;-64
2021/12/30 08:42:22;;;;;;;23.17;11.15;;;10.90;99.90;;;;;;4957176;28;20674;-64
2021/12/30 08:44:48;;;;;;;25.60;10.55;;;11.00;99.90;;;;;;4960914;28;20035;-64
2021/12/30 08:47:14;;;;;;;22.17;10.80;;;11.00;99.90;;;;;;4960537;28;20058;-64
2021/12/30 08:49:46;;;;;;;24.45;10.23;;;11.10;99.90;;;;;;4958196;28;20027;-64
2021/12/30 08:52:12;;;;;;;26.27;10.80;;;11.10;99.90;;;;;;4963182;28;20105;-64
2021/12/30 08:54:38;;;;;;;25.70;10.57;;;11.10;99.90;;;;;;4960245;28;20041;-64
2021/12/30 08:57:04;;;;;;;22.08;10.13;;;11.10;99.90;;;;;;4961864;28;20114;-64
2021/12/30 08:59:30;;;;;;;21.98;10.90;;;11.10;99.90;;;;;;4960880;28;20774;-66
2021/12/30 09:01:55;;;;;;;20.50;10.68;;;11.20;99.90;;;;;;4958436;28;20062;-68
2021/12/30 09:04:21;;;;;;;23.05;10.35;;;11.20;99.90;;;;;;4959023;28;20034;-67
2021/12/30 09:06:47;;;;;;;21.17;10.25;;;11.20;99.90;;;;;;4958853;28;20178;-67
2021/12/30 09:09:13;;;;;;;21.70;10.95;;;11.20;99.90;;;;;;4975613;28;20057;-67
2021/12/30 09:11:39;;;;;;;24.35;11.38;;;11.20;99.90;;;;;;4973803;28;20035;-67
2021/12/30 09:14:04;;;;;;;26.98;11.55;;;11.30;99.90;;;;;;4963582;28;20502;-67
2021/12/30 09:16:30;;;;;;;21.55;11.88;;;11.30;99.90;;;;;;4958241;28;20402;-67
2021/12/30 09:18:56;;;;;;;27.70;10.68;;;11.30;99.90;;;;;;4959748;28;20037;-67
2021/12/30 09:21:22;;;;;;;29.00;12.45;;;11.30;99.90;;;;;;4958867;28;20620;-67
2021/12/30 09:23:48;;;;;;;25.08;12.60;;;11.30;99.90;;;;;;4959402;28;20035;-67
2021/12/30 09:26:14;;;;;;;27.52;12.25;;;11.40;99.90;;;;;;4960924;28;20859;-67
2021/12/30 09:28:39;;;;;;;21.58;11.70;;;11.40;99.90;;;;;;4966092;28;20066;-66
2021/12/30 09:31:05;;;;;;;27.23;11.48;;;11.40;99.90;;;;;;4958565;28;20019;-66
2021/12/30 09:33:31;;;;;;;27.23;11.27;;;11.40;99.90;;;;;;4960850;28;20086;-67
2021/12/30 09:35:57;;;;;;;18.70;10.73;;;11.40;99.90;;;;;;4959416;28;20787;-67
2021/12/30 09:38:22;;;;;;;27.42;11.35;;;11.50;99.90;;;;;;4958091;28;20097;-66
2021/12/30 09:40:48;;;;;;;19.45;10.77;;;11.50;99.90;;;;;;4959501;28;20046;-66
2021/12/30 09:43:13;;;;;;;21.30;10.23;;;11.50;99.90;;;;;;4959463;28;20538;-67
2021/12/30 09:45:41;;;;;;;24.60;9.65;;;11.50;99.90;;;;;;4959347;28;20038;-67
2021/12/30 09:48:09;;;;;;;19.98;9.32;;;11.60;99.90;;;;;;4960460;28;20029;-67
2021/12/30 09:50:48;;;;;;;20.23;10.65;;;11.60;99.90;;;;;;4957882;28;20031;-67
2021/12/30 09:53:19;;;;;;;19.63;10.63;;;11.60;99.90;;;;;;4961269;28;20042;-67
2021/12/30 09:55:45;;;;;;;24.63;11.48;;;11.60;99.90;;;;;;4958290;28;20035;-67
2021/12/30 09:58:10;;;;;;;24.77;10.82;;;11.60;99.90;;;;;;4960888;28;20475;-67
2021/12/30 10:00:36;;;;;;;19.40;9.90;;;11.60;99.90;;;;;;4958219;28;20054;-67
2021/12/30 10:03:03;;;;;;;21.38;9.93;;;11.60;99.90;;;;;;4959030;28;20096;-67
2021/12/30 10:05:32;;;;;;;20.58;11.20;;;11.60;99.90;;;;;;4958505;28;20041;-67
2021/12/30 10:08:24;;;;;;;19.13;10.68;;;11.60;99.90;;;;;;4962274;28;20490;-67
2021/12/30 10:10:56;;;;;;;19.05;10.63;;;11.60;99.90;;;;;;4958053;28;20089;-67
2021/12/30 10:13:29;;;;;;;18.02;10.05;;;11.60;99.90;;;;;;4969799;28;20042;-67
2021/12/30 10:16:00;;;;;;;18.00;9.43;;;11.60;99.90;;;;;;4987638;28;20031;-67
2021/12/30 10:18:51;;;;;;;19.48;9.50;;;11.70;99.90;;;;;;4973105;28;20533;-67
2021/12/30 10:21:33;;;;;;;14.90;9.70;;;11.70;99.90;;;;;;4974181;28;20027;-66
2021/12/30 10:24:04;;;;;;;15.60;8.60;;;11.70;99.90;;;;;;4973471;28;20127;-67
2021/12/30 10:26:30;;;;;;;15.02;8.73;;;11.70;99.90;;;;;;4961964;28;20043;-67
2021/12/30 10:29:01;;;;;;;21.05;9.60;;;11.70;99.90;;;;;;4974101;28;20031;-66
2021/12/30 10:31:31;;;;;;;14.40;8.00;;;11.70;99.90;;;;;;4973928;28;20035;-67
2021/12/30 10:34:07;;;;;;;14.00;7.95;;;11.80;99.90;;;;;;4959974;28;20043;-69
2021/12/30 10:36:35;;;;;;;20.10;8.35;;;11.70;99.90;;;;;;4957770;28;20768;-66
2021/12/30 10:39:21;;;;;;;18.88;8.65;;;11.70;99.90;;;;;;4958043;28;20066;-66
2021/12/30 10:41:50;;;;;;;16.45;7.95;;;11.70;99.90;;;;;;4958512;28;20418;-66
2021/12/30 10:44:17;;;;;;;13.10;7.90;;;11.80;99.90;;;;;;4955743;28;20027;-68
2021/12/30 10:46:43;;;;;;;14.88;7.90;;;11.80;99.90;;;;;;4962472;28;20041;-68
2021/12/30 10:49:11;;;;;;;16.73;8.05;;;11.80;99.90;;;;;;4957538;28;20027;-69
2021/12/30 10:51:42;;;;;;;12.82;7.80;;;11.80;99.90;;;;;;4959432;28;20047;-70
2021/12/30 10:54:20;;;;;;;13.77;7.35;;;11.90;99.90;;;;;;4957283;28;20034;-69
2021/12/30 10:57:01;;;;;;;18.92;8.57;;;11.80;99.90;;;;;;4958050;28;20035;-69
2021/12/30 10:59:31;;;;;;;14.80;7.43;;;11.90;99.90;;;;;;4958156;28;22451;-69
2021/12/30 11:02:09;;;;;;;20.83;9.60;;;11.90;99.90;;;;;;4958296;28;20774;-68
2021/12/30 11:04:37;;;;;;;17.83;7.53;;;11.90;99.90;;;;;;4969357;28;20023;-68
2021/12/30 11:07:09;;;;;;;17.52;7.88;;;11.90;99.90;;;;;;4969407;28;20030;-68
2021/12/30 11:09:35;;;;;;;17.98;7.93;;;11.90;99.90;;;;;;4954677;28;20094;-69
2021/12/30 11:12:05;;;;;;;17.52;7.72;;;11.90;99.90;;;;;;4970144;28;20034;-69
2021/12/30 11:14:34;;;;;;;16.73;7.20;;;11.90;99.90;;;;;;4974279;28;20027;-69
2021/12/30 11:17:06;;;;;;;15.75;7.75;;;12.00;99.90;;;;;;4961873;28;20035;-69
2021/12/30 11:19:37;;;;;;;13.90;6.68;;;12.00;99.90;;;;;;4960850;28;20034;-69
2021/12/30 11:22:11;;;;;;;18.88;7.90;;;12.00;99.90;;;;;;4958227;28;20494;-68
2021/12/30 11:24:37;;;;;;;18.33;8.18;;;12.00;99.90;;;;;;4956580;28;20035;-68
2021/12/30 11:27:05;;;;;;;16.88;8.57;;;12.00;99.90;;;;;;4958493;28;20597;-69
2021/12/30 11:29:31;;;;;;;21.95;8.88;;;12.00;99.90;;;;;;4957369;28;20042;-68
2021/12/30 11:31:57;;;;;;;16.55;8.82;;;12.00;99.90;;;;;;4957666;28;20031;-69
2021/12/30 11:34:24;;;;;;;15.60;8.65;;;12.00;99.90;;;;;;4963326;28;20097;-69
2021/12/30 11:36:51;;;;;;;18.83;8.73;;;12.00;99.90;;;;;;4958544;28;20027;-68
2021/12/30 11:39:20;;;;;;;20.42;9.48;;;12.00;99.90;;;;;;4957631;28;20043;-68
2021/12/30 11:42:03;;;;;;;15.50;9.23;;;12.00;99.90;;;;;;4958689;28;20065;-69
2021/12/30 11:44:36;;;;;;;20.63;10.18;;;12.00;99.90;;;;;;4956932;28;20513;-69
2021/12/30 11:47:03;;;;;;;18.65;8.93;;;12.00;99.90;;;;;;4957497;28;20038;-69
2021/12/30 11:49:51;;;;;;;18.98;9.15;;;12.10;99.90;;;;;;4955507;28;20030;-69
2021/12/30 11:52:46;;;;;;;14.98;8.20;;;12.00;99.90;;;;;;4959677;28;20029;-69
2021/12/30 11:55:46;;;;;;;17.45;8.23;;;12.10;99.90;;;;;;4956668;28;20042;-69
2021/12/30 12:01:13;;;;;;;22.83;9.43;;;12.10;99.90;;;;;;4957498;28;20062;-67
2021/12/30 12:03:59;;;;;;;18.30;8.18;;;12.10;99.90;;;;;;4971897;28;20105;-68
2021/12/30 12:06:27;;;;;;;18.75;8.52;;;12.10;99.90;;;;;;4971745;28;20062;-67
2021/12/30 12:09:13;;;;;;;17.95;9.45;;;12.10;99.90;;;;;;4971910;28;20037;-67
2021/12/30 12:11:41;;;;;;;23.00;9.75;;;12.00;99.90;;;;;;4971564;28;20134;-67
2021/12/30 12:14:22;;;;;;;18.65;9.82;;;12.10;99.90;;;;;;4972891;28;20038;-67
2021/12/30 12:16:49;;;;;;;18.23;9.40;;;12.10;99.90;;;;;;4962027;28;20070;-67
2021/12/30 12:19:17;;;;;;;19.70;8.68;;;12.10;99.90;;;;;;4955578;28;20030;-67
2021/12/30 12:21:52;;;;;;;19.85;8.32;;;12.10;99.90;;;;;;4958880;28;20049;-67
2021/12/30 12:24:20;;;;;;;17.90;9.43;;;12.20;99.90;;;;;;4970128;28;20061;-67
2021/12/30 12:26:51;;;;;;;17.05;8.82;;;12.20;99.90;;;;;;4969591;28;20457;-67
2021/12/30 12:29:34;;;;;;;22.30;10.20;;;12.20;99.90;;;;;;4967836;28;20063;-66
2021/12/30 12:32:10;;;;;;;21.92;9.65;;;12.20;99.90;;;;;;4957098;28;20125;-65
2021/12/30 12:34:42;;;;;;;16.23;9.00;;;12.20;99.90;;;;;;4968938;28;20098;-66
2021/12/30 12:37:29;;;;;;;15.25;8.18;;;12.20;99.90;;;;;;4971457;28;20027;-66
2021/12/30 12:40:01;;;;;;;21.38;9.32;;;12.20;99.90;;;;;;4965117;28;20041;-66